Portada
METAR-TAF:

METAR-TAF

Aeroports :

Aurangabad, Índia

latitud: 19-51-46N, longitud: 75-23-53E, altitud: 582 m

Observació

L'informe es va fer fa 49 minuts, a les 12:00 UTC
Vent calma
Temperatura 31°C
Humitat 33%
Pressió 1016 hPa
Visibilitat: 5000 m
calitja

METAR: VAAU 171200Z 00000KT 5000 HZ NSC 31/13 Q1016

Hora: 18:19 (12:49 UTC)

Pronòstic

L'informe es va fer fa 1 hora i 49 minuts, a les 11:00 UTC
Pronòstic vàlid del 17 a les 12 UTC al 17 a les 21 UTC
Vent 5 kt del Est
Visibilitat: 5000 m
calitja
Evolucionant progressivament
l' 17 a les 14 UTC al 17 a les 16 UTC
Vent kt del Nord
Visibilitat: 4000 m
calitja

TAF: VAAU 171100Z 1712/1721 10005KT 5000 HZ NSC BECMG 1714/1716 00000KT 4000 HZ

Observacions i pronòstics meteorològics de més de 4000 aeroports (METAR i TAF).

Les estacions disponibles són els punts grocs i vermells al mapa.

Posi el ratolí al punt desitjat per veure el nom de l'estació.

Feu clic per veure les observacions i els pronòstics meteorològics.

Per canviar el mapa: feu clic els botons verds amb una creu de color negre per apropar; al botó verd amb un guió per allunyar la imatge; o en les fletxes verdes per a mapes adjacents.


METAR-TAF: